createdAt,value
2023-04-22T00:01:29.230Z,4.58
2023-04-22T00:04:07.608Z,4.56
2023-04-22T00:06:43.665Z,4.54
2023-04-22T00:09:29.399Z,4.53
2023-04-22T00:12:12.632Z,4.51
2023-04-22T00:14:47.780Z,4.48
2023-04-22T00:17:30.842Z,4.46
2023-04-22T00:20:24.162Z,4.43
2023-04-22T00:23:16.991Z,4.39
2023-04-22T00:26:02.570Z,4.35
2023-04-22T00:28:49.082Z,4.32
2023-04-22T00:31:41.787Z,4.27
2023-04-22T00:34:34.635Z,4.24
2023-04-22T00:37:28.336Z,4.21
2023-04-22T00:40:21.824Z,4.17
2023-04-22T00:42:54.505Z,4.13
2023-04-22T00:45:41.379Z,4.09
2023-04-22T00:48:34.954Z,4.05
2023-04-22T00:51:08.113Z,4.02
2023-04-22T00:53:54.152Z,3.99
2023-04-22T00:56:28.778Z,3.95
2023-04-22T00:59:04.190Z,3.93
2023-04-22T01:01:57.280Z,3.90
2023-04-22T01:04:50.283Z,3.87
2023-04-22T01:07:43.125Z,3.84
2023-04-22T01:10:36.560Z,3.82
2023-04-22T01:13:21.407Z,3.80
2023-04-22T01:15:55.010Z,3.79
2023-04-22T01:18:31.686Z,3.77
2023-04-22T01:21:14.513Z,3.74
2023-04-22T01:23:58.840Z,3.72
2023-04-22T01:26:34.939Z,3.70
2023-04-22T01:29:08.112Z,3.68
2023-04-22T01:32:01.283Z,3.66
2023-04-22T01:34:47.857Z,3.64
2023-04-22T01:37:42.540Z,3.62
2023-04-22T01:40:29.953Z,3.60
2023-04-22T01:43:22.650Z,3.56
2023-04-22T01:46:18.007Z,3.52
2023-04-22T01:49:09.401Z,3.48
2023-04-22T01:52:02.633Z,3.44
2023-04-22T01:54:55.789Z,3.39
2023-04-22T01:57:48.639Z,3.35
2023-04-22T02:00:41.617Z,3.31
2023-04-22T02:03:34.753Z,3.28
2023-04-22T02:06:28.278Z,3.24
2023-04-22T02:09:14.127Z,3.20
2023-04-22T02:12:07.445Z,3.16
2023-04-22T02:15:00.558Z,3.12
2023-04-22T02:17:53.210Z,3.08
2023-04-22T02:20:44.712Z,3.04
2023-04-22T02:23:38.259Z,3.01
2023-04-22T02:26:21.039Z,2.96
2023-04-22T02:29:13.590Z,2.93
2023-04-22T02:31:56.215Z,2.91
2023-04-22T02:34:49.419Z,2.89
2023-04-22T02:37:42.137Z,2.86
2023-04-22T02:40:34.807Z,2.84
2023-04-22T02:43:17.499Z,2.80
2023-04-22T02:46:13.203Z,2.79
2023-04-22T02:49:06.230Z,2.76
2023-04-22T02:52:01.599Z,2.74
2023-04-22T02:54:53.284Z,2.72
2023-04-22T02:57:47.317Z,2.69
2023-04-22T03:00:39.984Z,2.68
2023-04-22T03:03:33.257Z,2.65
2023-04-22T03:06:26.321Z,2.62
2023-04-22T03:09:18.486Z,2.61
2023-04-22T03:12:13.097Z,2.59
2023-04-22T03:15:06.722Z,2.57
2023-04-22T03:17:59.737Z,2.56
2023-04-22T03:20:52.712Z,2.54
2023-04-22T03:23:46.317Z,2.54
2023-04-22T03:26:39.193Z,2.55
2023-04-22T03:29:32.013Z,2.56
2023-04-22T03:32:17.850Z,2.57
2023-04-22T03:35:12.394Z,2.59
2023-04-22T03:38:05.238Z,2.62
2023-04-22T03:40:58.486Z,2.65
2023-04-22T03:43:54.203Z,2.70
2023-04-22T03:46:47.583Z,2.75
2023-04-22T03:49:40.957Z,2.81
2023-04-22T03:52:34.124Z,2.86
2023-04-22T03:55:27.082Z,2.92
2023-04-22T03:58:20.825Z,2.99
2023-04-22T04:01:13.737Z,3.06
2023-04-22T04:04:06.868Z,3.13
2023-04-22T04:07:10.507Z,3.20
2023-04-22T04:10:03.250Z,3.29
2023-04-22T04:12:56.286Z,3.37
2023-04-22T04:15:49.041Z,3.45
2023-04-22T04:18:41.702Z,3.53
2023-04-22T04:21:34.574Z,3.62
2023-04-22T04:24:27.182Z,3.71
2023-04-22T04:27:21.164Z,3.80
2023-04-22T04:30:14.917Z,3.89
2023-04-22T04:33:08.173Z,4.01
2023-04-22T04:36:01.781Z,4.14
2023-04-22T04:38:55.728Z,4.27
2023-04-22T04:41:49.156Z,4.42
2023-04-22T04:44:42.070Z,4.56
2023-04-22T04:47:35.132Z,4.71
2023-04-22T04:50:30.512Z,4.87
2023-04-22T04:53:23.223Z,5.05
2023-04-22T04:56:17.765Z,5.24
2023-04-22T04:59:10.344Z,5.45
2023-04-22T05:02:03.822Z,5.72
2023-04-22T05:04:56.493Z,6.13
2023-04-22T05:07:52.045Z,6.63
2023-04-22T05:10:45.387Z,7.00
2023-04-22T05:13:38.622Z,7.26
2023-04-22T05:16:24.295Z,7.41
2023-04-22T05:19:18.610Z,7.58
2023-04-22T05:22:04.930Z,7.80
2023-04-22T05:24:57.453Z,8.01
2023-04-22T05:27:49.990Z,8.21
2023-04-22T05:30:45.094Z,8.45
2023-04-22T05:33:38.157Z,8.73
2023-04-22T05:36:13.464Z,8.99
2023-04-22T05:39:06.936Z,9.22
2023-04-22T05:41:59.948Z,9.49
2023-04-22T05:44:45.585Z,9.74
2023-04-22T05:47:38.551Z,10.03
2023-04-22T05:50:33.738Z,10.26
2023-04-22T05:53:11.474Z,10.30
2023-04-22T05:55:44.321Z,10.32
2023-04-22T05:58:17.251Z,10.34
2023-04-22T06:01:06.882Z,10.56
2023-04-22T06:04:02.897Z,10.83
2023-04-22T06:06:39.592Z,11.01
2023-04-22T06:09:22.405Z,11.14
2023-04-22T06:11:55.561Z,11.26
2023-04-22T06:14:30.503Z,11.41
2023-04-22T06:17:06.920Z,11.59
2023-04-22T06:19:50.528Z,11.76
2023-04-22T06:22:26.159Z,11.89
2023-04-22T06:25:01.956Z,12.02
2023-04-22T06:27:35.573Z,12.13
2023-04-22T06:30:28.960Z,12.20
2023-04-22T06:33:21.845Z,12.22
2023-04-22T06:36:15.970Z,12.34
2023-04-22T06:39:11.108Z,12.44
2023-04-22T06:42:07.162Z,12.56
2023-04-22T06:44:58.991Z,12.74
2023-04-22T06:48:00.284Z,12.94
2023-04-22T06:50:53.549Z,13.16
2023-04-22T06:53:45.139Z,13.36
2023-04-22T06:56:37.863Z,13.62
2023-04-22T06:59:16.262Z,13.76
2023-04-22T07:02:10.074Z,13.86
2023-04-22T07:05:03.093Z,13.89
2023-04-22T07:07:55.796Z,13.97
2023-04-22T07:10:48.801Z,14.04
2023-04-22T07:13:47.784Z,14.05
2023-04-22T07:16:40.902Z,14.14
2023-04-22T07:19:35.211Z,14.25
2023-04-22T07:22:10.026Z,14.37
2023-04-22T07:24:42.861Z,14.44
2023-04-22T07:27:26.766Z,14.57
2023-04-22T07:29:59.362Z,14.73
2023-04-22T07:32:36.733Z,14.96
2023-04-22T07:35:12.965Z,15.10
2023-04-22T07:37:45.692Z,15.24
2023-04-22T07:40:18.762Z,15.43
2023-04-22T07:42:51.823Z,15.59
2023-04-22T07:45:34.723Z,15.68
2023-04-22T07:48:10.469Z,15.85
2023-04-22T07:51:09.239Z,16.16
2023-04-22T07:53:42.094Z,16.29
2023-04-22T07:56:18.719Z,16.42
2023-04-22T07:58:52.081Z,16.58
2023-04-22T08:01:25.574Z,16.70
2023-04-22T08:04:18.850Z,16.86
2023-04-22T08:06:56.028Z,17.01
2023-04-22T08:09:29.088Z,17.07
2023-04-22T08:12:11.926Z,17.13
2023-04-22T08:15:03.498Z,17.12
2023-04-22T08:17:49.135Z,17.13
2023-04-22T08:20:42.289Z,17.27
2023-04-22T08:23:17.896Z,17.37
2023-04-22T08:25:51.977Z,17.53
2023-04-22T08:28:27.846Z,17.65
2023-04-22T08:31:00.555Z,17.84
2023-04-22T08:33:33.288Z,18.08
2023-04-22T08:36:09.236Z,18.19
2023-04-22T08:38:43.173Z,18.42
2023-04-22T08:41:16.526Z,18.64
2023-04-22T08:43:49.360Z,18.82
2023-04-22T08:46:24.170Z,18.95
2023-04-22T08:48:59.603Z,19.01
2023-04-22T08:51:37.249Z,18.86
2023-04-22T08:54:10.298Z,18.83
2023-04-22T08:56:45.648Z,18.87
2023-04-22T08:59:19.968Z,18.96
2023-04-22T09:01:56.825Z,18.98
2023-04-22T09:04:29.517Z,18.94
2023-04-22T09:07:03.248Z,18.91
2023-04-22T09:09:36.288Z,18.81
2023-04-22T09:12:11.897Z,18.85
2023-04-22T09:14:45.032Z,18.96
2023-04-22T09:17:20.284Z,19.07
2023-04-22T09:20:00.539Z,19.22
2023-04-22T09:22:42.051Z,19.45
2023-04-22T09:25:21.408Z,19.77
2023-04-22T09:27:55.112Z,20.14
2023-04-22T09:30:30.631Z,20.48
2023-04-22T09:33:04.516Z,20.76
2023-04-22T09:35:38.954Z,21.02
2023-04-22T09:38:13.602Z,21.20
2023-04-22T09:40:47.562Z,21.22
2023-04-22T09:43:22.039Z,21.20
2023-04-22T09:45:54.772Z,21.22
2023-04-22T09:48:27.205Z,21.15
2023-04-22T09:50:59.908Z,21.14
2023-04-22T09:53:41.055Z,21.11
2023-04-22T09:56:13.561Z,20.98
2023-04-22T09:58:46.366Z,20.77
2023-04-22T10:01:19.306Z,20.55
2023-04-22T10:03:52.107Z,20.35
2023-04-22T10:06:26.316Z,20.27
2023-04-22T10:09:00.011Z,20.18
2023-04-22T10:11:33.450Z,20.07
2023-04-22T10:14:06.703Z,19.97
2023-04-22T10:16:41.866Z,19.89
2023-04-22T10:19:17.955Z,19.82
2023-04-22T10:21:53.686Z,19.83
2023-04-22T10:24:36.649Z,19.91
2023-04-22T10:27:28.643Z,19.98
2023-04-22T10:30:08.277Z,20.03
2023-04-22T10:32:40.979Z,20.14
2023-04-22T10:35:17.258Z,20.22
2023-04-22T10:37:51.031Z,20.34
2023-04-22T10:40:26.842Z,20.45
2023-04-22T10:43:41.488Z,20.59
2023-04-22T10:47:01.425Z,20.76
2023-04-22T10:49:35.113Z,20.74
2023-04-22T10:52:09.458Z,20.76
2023-04-22T10:55:04.859Z,20.89
2023-04-22T10:57:45.946Z,21.06
2023-04-22T11:00:41.801Z,21.13
2023-04-22T11:03:26.771Z,21.03
2023-04-22T11:06:22.499Z,21.01
2023-04-22T11:09:13.067Z,21.09
2023-04-22T11:12:35.973Z,21.36
2023-04-22T11:15:13.398Z,21.77
2023-04-22T11:17:51.757Z,22.11
2023-04-22T11:20:25.683Z,22.58
2023-04-22T11:22:59.714Z,23.01
2023-04-22T11:25:35.086Z,23.43
2023-04-22T11:28:07.933Z,23.72
2023-04-22T11:30:40.715Z,23.93
2023-04-22T11:33:17.721Z,24.00
2023-04-22T11:35:52.728Z,24.07
2023-04-22T11:38:25.258Z,24.16
2023-04-22T11:40:58.557Z,24.24
2023-04-22T11:43:32.838Z,24.36
2023-04-22T11:46:08.849Z,24.37
2023-04-22T11:48:41.397Z,24.27
2023-04-22T11:51:16.777Z,24.14
2023-04-22T11:53:54.954Z,24.07
2023-04-22T11:56:30.777Z,23.97
2023-04-22T11:59:03.136Z,23.92
2023-04-22T12:01:36.256Z,23.94
2023-04-22T12:04:12.154Z,23.95
2023-04-22T12:06:49.077Z,23.95
2023-04-22T12:09:25.852Z,23.95
2023-04-22T12:11:58.357Z,24.00
2023-04-22T12:14:35.121Z,24.06
2023-04-22T12:17:12.159Z,24.05
2023-04-22T12:19:49.646Z,24.09
2023-04-22T12:22:27.038Z,24.00
2023-04-22T12:25:02.334Z,23.78
2023-04-22T12:27:36.177Z,23.54
2023-04-22T12:30:18.408Z,23.52
2023-04-22T12:32:51.110Z,23.42
2023-04-22T12:35:25.070Z,23.29
2023-04-22T12:38:02.010Z,23.17
2023-04-22T12:40:34.829Z,23.16
2023-04-22T12:43:08.790Z,23.20
2023-04-22T12:45:41.726Z,23.16
2023-04-22T12:48:18.297Z,23.23
2023-04-22T12:50:50.860Z,23.27
2023-04-22T12:53:27.065Z,23.24
2023-04-22T12:55:59.753Z,23.12
2023-04-22T12:58:32.453Z,23.06
2023-04-22T13:01:05.170Z,23.01
2023-04-22T13:03:41.032Z,23.05
2023-04-22T13:06:13.881Z,23.06
2023-04-22T13:08:50.759Z,23.03
2023-04-22T13:11:28.574Z,22.92
2023-04-22T13:14:03.566Z,22.84
2023-04-22T13:16:39.140Z,22.84
2023-04-22T13:19:11.985Z,22.87
2023-04-22T13:21:45.206Z,22.83
2023-04-22T13:24:20.838Z,22.77
2023-04-22T13:26:53.766Z,22.71
2023-04-22T13:29:29.774Z,22.54
2023-04-22T13:32:02.962Z,22.44
2023-04-22T13:34:40.780Z,22.33
2023-04-22T13:37:16.525Z,22.15
2023-04-22T13:39:51.318Z,21.93
2023-04-22T13:42:23.890Z,21.81
2023-04-22T13:44:59.465Z,21.55
2023-04-22T13:47:39.405Z,21.32
2023-04-22T13:50:13.024Z,21.26
2023-04-22T13:52:46.273Z,21.28
2023-04-22T13:55:19.540Z,21.27
2023-04-22T13:57:57.194Z,21.23
2023-04-22T14:00:30.053Z,21.29
2023-04-22T14:03:02.978Z,21.44
2023-04-22T14:05:38.736Z,21.53
2023-04-22T14:08:13.060Z,21.50
2023-04-22T14:10:46.136Z,21.50
2023-04-22T14:13:18.890Z,21.58
2023-04-22T14:15:51.968Z,21.67
2023-04-22T14:18:24.375Z,21.75
2023-04-22T14:20:59.296Z,21.73
2023-04-22T14:23:31.836Z,21.77
2023-04-22T14:26:04.514Z,21.90
2023-04-22T14:28:37.816Z,21.95
2023-04-22T14:31:17.023Z,21.81
2023-04-22T14:33:50.656Z,21.74
2023-04-22T14:36:27.055Z,21.80
2023-04-22T14:38:59.350Z,21.83
2023-04-22T14:41:31.934Z,21.77
2023-04-22T14:44:06.888Z,21.68
2023-04-22T14:46:40.921Z,21.61
2023-04-22T14:49:13.946Z,21.62
2023-04-22T14:51:46.874Z,21.65
2023-04-22T14:54:19.669Z,21.65
2023-04-22T14:56:56.936Z,21.65
2023-04-22T14:59:29.257Z,21.55
2023-04-22T15:02:01.907Z,21.48
2023-04-22T15:04:34.695Z,21.45
2023-04-22T15:07:07.691Z,21.39
2023-04-22T15:09:40.439Z,21.45
2023-04-22T15:12:13.107Z,21.49
2023-04-22T15:14:45.938Z,21.57
2023-04-22T15:17:18.486Z,21.69
2023-04-22T15:19:54.444Z,21.81
2023-04-22T15:22:27.478Z,21.97
2023-04-22T15:24:59.906Z,22.09
2023-04-22T15:27:32.588Z,22.22
2023-04-22T15:30:06.000Z,22.28
2023-04-22T15:32:40.304Z,22.26
2023-04-22T15:35:13.169Z,22.17
2023-04-22T15:37:45.983Z,22.01
2023-04-22T15:40:18.386Z,21.89
2023-04-22T15:42:50.520Z,21.80
2023-04-22T15:45:24.383Z,21.67
2023-04-22T15:47:59.563Z,21.58
2023-04-22T15:50:32.108Z,21.52
2023-04-22T15:53:04.655Z,21.38
2023-04-22T15:55:38.094Z,21.27
2023-04-22T15:58:11.535Z,21.14
2023-04-22T16:00:44.069Z,20.92
2023-04-22T16:03:17.613Z,20.78
2023-04-22T16:05:50.086Z,20.73
2023-04-22T16:08:22.417Z,20.75
2023-04-22T16:10:56.692Z,20.82
2023-04-22T16:13:29.236Z,20.84
2023-04-22T16:16:01.982Z,20.81
2023-04-22T16:18:38.588Z,20.74
2023-04-22T16:21:13.035Z,20.78
2023-04-22T16:23:48.834Z,20.86
2023-04-22T16:26:21.405Z,21.00
2023-04-22T16:28:54.991Z,20.95
2023-04-22T16:31:27.967Z,20.99
2023-04-22T16:34:02.703Z,21.02
2023-04-22T16:36:35.380Z,20.99
2023-04-22T16:39:08.305Z,20.90
2023-04-22T16:41:43.146Z,20.81
2023-04-22T16:44:15.789Z,20.72
2023-04-22T16:46:49.177Z,20.60
2023-04-22T16:49:21.663Z,20.51
2023-04-22T16:51:54.344Z,20.35
2023-04-22T16:54:26.714Z,20.14
2023-04-22T16:57:18.025Z,19.88
2023-04-22T16:59:50.572Z,19.66
2023-04-22T17:02:23.314Z,19.32
2023-04-22T17:04:55.586Z,18.93
2023-04-22T17:07:38.451Z,18.54
2023-04-22T17:10:23.720Z,18.23
2023-04-22T17:13:01.065Z,17.95
2023-04-22T17:15:40.484Z,17.69
2023-04-22T17:18:26.224Z,17.39
2023-04-22T17:20:58.929Z,17.11
2023-04-22T17:23:35.103Z,16.85
2023-04-22T17:26:20.993Z,16.57
2023-04-22T17:29:14.283Z,16.27
2023-04-22T17:32:01.510Z,15.97
2023-04-22T17:34:45.149Z,15.69
2023-04-22T17:37:17.839Z,15.44
2023-04-22T17:40:04.924Z,15.17
2023-04-22T17:42:57.602Z,14.90
2023-04-22T17:45:47.270Z,14.63
2023-04-22T17:48:22.486Z,14.38
2023-04-22T17:51:15.357Z,14.12
2023-04-22T17:53:47.962Z,13.89
2023-04-22T17:56:40.982Z,13.64
2023-04-22T17:59:26.988Z,13.41
2023-04-22T18:02:11.791Z,13.19
2023-04-22T18:05:03.326Z,12.96
2023-04-22T18:07:36.265Z,12.76
2023-04-22T18:10:19.814Z,12.57
2023-04-22T18:13:12.528Z,12.38
2023-04-22T18:15:44.890Z,12.20
2023-04-22T18:18:20.034Z,12.03
2023-04-22T18:20:52.677Z,11.87
2023-04-22T18:23:44.992Z,11.69
2023-04-22T18:26:31.489Z,11.52
2023-04-22T18:29:19.650Z,11.36
2023-04-22T18:32:13.085Z,11.19
2023-04-22T18:34:50.784Z,11.04
2023-04-22T18:37:29.806Z,10.90
2023-04-22T18:40:02.662Z,10.76
2023-04-22T18:42:36.340Z,10.63
2023-04-22T18:45:11.178Z,10.51
2023-04-22T18:47:44.169Z,10.41
2023-04-22T18:50:21.045Z,10.29
2023-04-22T18:52:55.904Z,10.17
2023-04-22T18:55:28.619Z,10.05
2023-04-22T18:58:01.380Z,9.93
2023-04-22T19:00:37.838Z,9.83
2023-04-22T19:03:11.342Z,9.73
2023-04-22T19:05:45.689Z,9.64
2023-04-22T19:08:18.460Z,9.56
2023-04-22T19:10:54.203Z,9.48
2023-04-22T19:13:30.405Z,9.40
2023-04-22T19:16:11.549Z,9.33
2023-04-22T19:18:44.869Z,9.27
2023-04-22T19:21:19.791Z,9.21
2023-04-22T19:23:53.187Z,9.16
2023-04-22T19:26:29.621Z,9.10
2023-04-22T19:29:02.600Z,9.04
2023-04-22T19:31:35.347Z,8.98
2023-04-22T19:34:22.381Z,8.91
2023-04-22T19:36:58.084Z,8.85
2023-04-22T19:39:31.004Z,8.78
2023-04-22T19:42:23.900Z,8.71
2023-04-22T19:45:01.030Z,8.65
2023-04-22T19:47:37.792Z,8.59
2023-04-22T19:50:24.004Z,8.51
2023-04-22T19:53:10.455Z,8.43
2023-04-22T19:56:03.789Z,8.36
2023-04-22T19:58:48.894Z,8.33
2023-04-22T20:01:25.235Z,8.29
2023-04-22T20:04:09.035Z,8.23
2023-04-22T20:06:42.371Z,8.19
2023-04-22T20:09:19.325Z,8.14
2023-04-22T20:11:53.688Z,8.09
2023-04-22T20:14:29.016Z,8.04
2023-04-22T20:17:02.426Z,7.98
2023-04-22T20:19:37.206Z,7.92
2023-04-22T20:22:13.628Z,7.86
2023-04-22T20:24:49.009Z,7.80
2023-04-22T20:27:23.074Z,7.73
2023-04-22T20:29:57.300Z,7.66
2023-04-22T20:32:30.689Z,7.59
2023-04-22T20:35:16.792Z,7.54
2023-04-22T20:37:53.093Z,7.49
2023-04-22T20:40:26.748Z,7.44
2023-04-22T20:43:00.501Z,7.39
2023-04-22T20:45:33.009Z,7.33
2023-04-22T20:48:06.116Z,7.28
2023-04-22T20:50:39.086Z,7.24
2023-04-22T20:53:11.781Z,7.19
2023-04-22T20:55:44.112Z,7.14
2023-04-22T20:58:19.278Z,7.09
2023-04-22T21:00:53.421Z,7.04
2023-04-22T21:03:29.172Z,6.98
2023-04-22T21:06:06.319Z,6.93
2023-04-22T21:08:40.775Z,6.88
2023-04-22T21:11:14.180Z,6.83
2023-04-22T21:13:47.753Z,6.79
2023-04-22T21:16:24.616Z,6.75
2023-04-22T21:19:01.748Z,6.71
2023-04-22T21:21:37.940Z,6.67
2023-04-22T21:24:12.191Z,6.64
2023-04-22T21:26:47.763Z,6.60
2023-04-22T21:29:22.169Z,6.56
2023-04-22T21:32:05.376Z,6.52
2023-04-22T21:34:42.191Z,6.47
2023-04-22T21:37:16.685Z,6.42
2023-04-22T21:39:49.497Z,6.37
2023-04-22T21:42:22.891Z,6.32
2023-04-22T21:44:55.932Z,6.28
2023-04-22T21:47:28.501Z,6.25
2023-04-22T21:50:21.680Z,6.20
2023-04-22T21:53:16.336Z,6.16
2023-04-22T21:56:09.560Z,6.11
2023-04-22T21:58:53.706Z,6.05
2023-04-22T22:01:39.848Z,6.00
2023-04-22T22:04:32.815Z,5.95
2023-04-22T22:07:26.957Z,5.88
2023-04-22T22:10:20.718Z,5.83
2023-04-22T22:13:13.540Z,5.78
2023-04-22T22:15:57.727Z,5.73
2023-04-22T22:18:45.682Z,5.68
2023-04-22T22:21:38.996Z,5.64
2023-04-22T22:24:32.314Z,5.58
2023-04-22T22:27:26.489Z,5.54
2023-04-22T22:30:13.657Z,5.50
2023-04-22T22:33:08.355Z,5.45
2023-04-22T22:36:01.508Z,5.41
2023-04-22T22:38:46.953Z,5.38
2023-04-22T22:41:44.076Z,5.35
2023-04-22T22:44:37.869Z,5.29
2023-04-22T22:47:30.865Z,5.25
2023-04-22T22:50:16.369Z,5.21
2023-04-22T22:53:02.588Z,5.18
2023-04-22T22:55:54.947Z,5.14
2023-04-22T22:58:48.309Z,5.11
2023-04-22T23:01:33.856Z,5.06
2023-04-22T23:04:21.639Z,5.02
2023-04-22T23:07:16.688Z,4.97
2023-04-22T23:10:00.633Z,4.93
2023-04-22T23:12:37.060Z,4.89
2023-04-22T23:15:30.193Z,4.85
2023-04-22T23:18:24.145Z,4.82
2023-04-22T23:21:18.204Z,4.79
2023-04-22T23:23:54.220Z,4.75
2023-04-22T23:26:47.717Z,4.72
2023-04-22T23:29:30.169Z,4.69
2023-04-22T23:32:23.569Z,4.66
2023-04-22T23:35:17.272Z,4.63
2023-04-22T23:38:11.090Z,4.60
2023-04-22T23:40:56.831Z,4.57
2023-04-22T23:44:36.705Z,4.54
2023-04-22T23:47:04.080Z,4.51
2023-04-22T23:49:57.198Z,4.48
2023-04-22T23:52:43.087Z,4.46
2023-04-22T23:55:37.673Z,4.44
2023-04-22T23:58:31.297Z,4.41
